sensor_id;sensor_type;location;lat;lon;timestamp;P1;durP1;ratioP1;P2;durP2;ratioP2
76848;SDS011;65814;51.134;16.980;2023-07-22T00:00:26;4.90;;;3.10;;
76848;SDS011;65814;51.134;16.980;2023-07-22T00:03:13;4.10;;;3.30;;
76848;SDS011;65814;51.134;16.980;2023-07-22T00:05:42;3.80;;;2.90;;
76848;SDS011;65814;51.134;16.980;2023-07-22T00:08:10;4.40;;;3.10;;
76848;SDS011;65814;51.134;16.980;2023-07-22T00:10:41;5.00;;;2.70;;
76848;SDS011;65814;51.134;16.980;2023-07-22T00:13:10;4.70;;;3.50;;
76848;SDS011;65814;51.134;16.980;2023-07-22T00:15:38;4.50;;;3.60;;
76848;SDS011;65814;51.134;16.980;2023-07-22T00:18:06;4.20;;;2.70;;
76848;SDS011;65814;51.134;16.980;2023-07-22T00:20:35;3.30;;;2.80;;
76848;SDS011;65814;51.134;16.980;2023-07-22T00:23:03;6.20;;;2.90;;
76848;SDS011;65814;51.134;16.980;2023-07-22T00:25:31;4.00;;;2.60;;
76848;SDS011;65814;51.134;16.980;2023-07-22T00:27:59;3.70;;;2.80;;
76848;SDS011;65814;51.134;16.980;2023-07-22T00:30:27;5.50;;;3.20;;
76848;SDS011;65814;51.134;16.980;2023-07-22T00:32:55;5.10;;;3.00;;
76848;SDS011;65814;51.134;16.980;2023-07-22T00:35:23;3.70;;;2.90;;
76848;SDS011;65814;51.134;16.980;2023-07-22T00:37:51;3.90;;;3.00;;
76848;SDS011;65814;51.134;16.980;2023-07-22T00:40:19;4.70;;;3.10;;
76848;SDS011;65814;51.134;16.980;2023-07-22T00:42:47;4.40;;;2.90;;
76848;SDS011;65814;51.134;16.980;2023-07-22T00:45:15;3.90;;;3.20;;
76848;SDS011;65814;51.134;16.980;2023-07-22T00:47:44;3.70;;;3.00;;
76848;SDS011;65814;51.134;16.980;2023-07-22T00:50:12;4.70;;;2.90;;
76848;SDS011;65814;51.134;16.980;2023-07-22T00:52:40;3.70;;;3.20;;
76848;SDS011;65814;51.134;16.980;2023-07-22T00:55:08;3.80;;;2.70;;
76848;SDS011;65814;51.134;16.980;2023-07-22T00:57:37;5.40;;;3.30;;
76848;SDS011;65814;51.134;16.980;2023-07-22T01:00:06;3.40;;;3.10;;
76848;SDS011;65814;51.134;16.980;2023-07-22T01:02:34;4.40;;;3.60;;
76848;SDS011;65814;51.134;16.980;2023-07-22T01:05:02;3.30;;;2.80;;
76848;SDS011;65814;51.134;16.980;2023-07-22T01:07:31;6.20;;;4.20;;
76848;SDS011;65814;51.134;16.980;2023-07-22T01:09:59;4.10;;;2.90;;
76848;SDS011;65814;51.134;16.980;2023-07-22T01:12:27;5.70;;;3.10;;
76848;SDS011;65814;51.134;16.980;2023-07-22T01:14:55;4.00;;;3.20;;
76848;SDS011;65814;51.134;16.980;2023-07-22T01:17:23;4.10;;;3.00;;
76848;SDS011;65814;51.134;16.980;2023-07-22T01:19:54;4.50;;;3.20;;
76848;SDS011;65814;51.134;16.980;2023-07-22T01:22:22;3.10;;;2.60;;
76848;SDS011;65814;51.134;16.980;2023-07-22T01:24:51;4.50;;;3.90;;
76848;SDS011;65814;51.134;16.980;2023-07-22T01:27:19;3.60;;;2.70;;
76848;SDS011;65814;51.134;16.980;2023-07-22T01:29:50;5.40;;;3.80;;
76848;SDS011;65814;51.134;16.980;2023-07-22T01:32:19;4.70;;;3.90;;
76848;SDS011;65814;51.134;16.980;2023-07-22T01:34:47;5.50;;;4.10;;
76848;SDS011;65814;51.134;16.980;2023-07-22T01:37:15;4.80;;;4.00;;
76848;SDS011;65814;51.134;16.980;2023-07-22T01:39:43;5.70;;;4.50;;
76848;SDS011;65814;51.134;16.980;2023-07-22T01:42:12;5.30;;;4.20;;
76848;SDS011;65814;51.134;16.980;2023-07-22T01:44:40;5.60;;;4.50;;
76848;SDS011;65814;51.134;16.980;2023-07-22T01:47:08;4.90;;;4.10;;
76848;SDS011;65814;51.134;16.980;2023-07-22T01:49:36;5.00;;;3.80;;
76848;SDS011;65814;51.134;16.980;2023-07-22T01:52:04;4.90;;;4.20;;
76848;SDS011;65814;51.134;16.980;2023-07-22T01:54:32;5.80;;;3.70;;
76848;SDS011;65814;51.134;16.980;2023-07-22T01:57:00;4.70;;;3.40;;
76848;SDS011;65814;51.134;16.980;2023-07-22T01:59:28;4.30;;;3.90;;
76848;SDS011;65814;51.134;16.980;2023-07-22T02:01:56;7.30;;;4.00;;
76848;SDS011;65814;51.134;16.980;2023-07-22T02:04:24;5.00;;;3.40;;
76848;SDS011;65814;51.134;16.980;2023-07-22T02:06:52;5.70;;;4.10;;
76848;SDS011;65814;51.134;16.980;2023-07-22T02:09:21;7.90;;;4.30;;
76848;SDS011;65814;51.134;16.980;2023-07-22T02:11:49;4.80;;;3.40;;
76848;SDS011;65814;51.134;16.980;2023-07-22T02:14:17;5.50;;;3.80;;
76848;SDS011;65814;51.134;16.980;2023-07-22T02:16:45;4.50;;;3.50;;
76848;SDS011;65814;51.134;16.980;2023-07-22T02:19:15;6.50;;;4.00;;
76848;SDS011;65814;51.134;16.980;2023-07-22T02:21:44;5.80;;;3.90;;
76848;SDS011;65814;51.134;16.980;2023-07-22T02:24:12;4.80;;;3.90;;
76848;SDS011;65814;51.134;16.980;2023-07-22T02:26:41;5.10;;;4.10;;
76848;SDS011;65814;51.134;16.980;2023-07-22T02:29:09;6.00;;;4.40;;
76848;SDS011;65814;51.134;16.980;2023-07-22T02:31:37;7.20;;;5.00;;
76848;SDS011;65814;51.134;16.980;2023-07-22T02:34:08;4.90;;;4.20;;
76848;SDS011;65814;51.134;16.980;2023-07-22T02:36:36;5.70;;;3.70;;
76848;SDS011;65814;51.134;16.980;2023-07-22T02:39:04;5.10;;;4.20;;
76848;SDS011;65814;51.134;16.980;2023-07-22T02:41:32;6.10;;;4.80;;
76848;SDS011;65814;51.134;16.980;2023-07-22T02:44:00;6.20;;;5.60;;
76848;SDS011;65814;51.134;16.980;2023-07-22T02:46:28;8.00;;;6.00;;
76848;SDS011;65814;51.134;16.980;2023-07-22T02:48:57;5.90;;;4.40;;
76848;SDS011;65814;51.134;16.980;2023-07-22T02:51:26;6.60;;;4.90;;
76848;SDS011;65814;51.134;16.980;2023-07-22T02:53:54;6.20;;;5.30;;
76848;SDS011;65814;51.134;16.980;2023-07-22T02:56:22;5.40;;;4.50;;
76848;SDS011;65814;51.134;16.980;2023-07-22T02:58:52;6.80;;;5.00;;
76848;SDS011;65814;51.134;16.980;2023-07-22T03:01:20;6.00;;;4.50;;
76848;SDS011;65814;51.134;16.980;2023-07-22T03:03:48;6.90;;;4.60;;
76848;SDS011;65814;51.134;16.980;2023-07-22T03:06:15;6.00;;;5.00;;
76848;SDS011;65814;51.134;16.980;2023-07-22T03:08:43;6.40;;;4.70;;
76848;SDS011;65814;51.134;16.980;2023-07-22T03:11:13;5.60;;;4.70;;
76848;SDS011;65814;51.134;16.980;2023-07-22T03:13:41;8.70;;;6.20;;
76848;SDS011;65814;51.134;16.980;2023-07-22T03:16:09;5.20;;;4.30;;
76848;SDS011;65814;51.134;16.980;2023-07-22T03:18:38;6.50;;;5.20;;
76848;SDS011;65814;51.134;16.980;2023-07-22T03:21:07;5.60;;;5.10;;
76848;SDS011;65814;51.134;16.980;2023-07-22T03:23:36;7.90;;;5.20;;
76848;SDS011;65814;51.134;16.980;2023-07-22T03:26:04;5.70;;;4.70;;
76848;SDS011;65814;51.134;16.980;2023-07-22T03:28:32;5.40;;;4.70;;
76848;SDS011;65814;51.134;16.980;2023-07-22T03:31:00;5.20;;;4.70;;
76848;SDS011;65814;51.134;16.980;2023-07-22T03:33:28;6.50;;;4.50;;
76848;SDS011;65814;51.134;16.980;2023-07-22T03:35:57;5.80;;;5.20;;
76848;SDS011;65814;51.134;16.980;2023-07-22T03:38:25;5.20;;;4.30;;
76848;SDS011;65814;51.134;16.980;2023-07-22T03:40:53;7.00;;;5.10;;
76848;SDS011;65814;51.134;16.980;2023-07-22T03:43:20;8.20;;;5.30;;
76848;SDS011;65814;51.134;16.980;2023-07-22T03:45:48;6.30;;;4.80;;
76848;SDS011;65814;51.134;16.980;2023-07-22T03:48:17;8.10;;;5.50;;
76848;SDS011;65814;51.134;16.980;2023-07-22T03:50:44;6.90;;;5.10;;
76848;SDS011;65814;51.134;16.980;2023-07-22T03:53:13;6.80;;;5.80;;
76848;SDS011;65814;51.134;16.980;2023-07-22T03:55:41;6.60;;;4.80;;
76848;SDS011;65814;51.134;16.980;2023-07-22T03:58:09;7.10;;;5.20;;
76848;SDS011;65814;51.134;16.980;2023-07-22T04:00:37;6.90;;;4.70;;
76848;SDS011;65814;51.134;16.980;2023-07-22T04:03:06;5.50;;;4.50;;
76848;SDS011;65814;51.134;16.980;2023-07-22T04:05:35;6.70;;;4.40;;
76848;SDS011;65814;51.134;16.980;2023-07-22T04:08:03;6.20;;;5.60;;
76848;SDS011;65814;51.134;16.980;2023-07-22T04:10:33;5.60;;;4.20;;
76848;SDS011;65814;51.134;16.980;2023-07-22T04:13:01;5.90;;;4.50;;
76848;SDS011;65814;51.134;16.980;2023-07-22T04:15:29;5.50;;;4.40;;
76848;SDS011;65814;51.134;16.980;2023-07-22T04:17:57;5.40;;;4.00;;
76848;SDS011;65814;51.134;16.980;2023-07-22T04:20:25;6.00;;;3.80;;
76848;SDS011;65814;51.134;16.980;2023-07-22T04:22:53;4.80;;;3.70;;
76848;SDS011;65814;51.134;16.980;2023-07-22T04:25:21;5.30;;;4.60;;
76848;SDS011;65814;51.134;16.980;2023-07-22T04:27:50;6.30;;;3.90;;
76848;SDS011;65814;51.134;16.980;2023-07-22T04:30:17;6.60;;;3.80;;
76848;SDS011;65814;51.134;16.980;2023-07-22T04:32:48;6.20;;;4.40;;
76848;SDS011;65814;51.134;16.980;2023-07-22T04:35:17;4.60;;;4.00;;
76848;SDS011;65814;51.134;16.980;2023-07-22T04:37:45;5.60;;;3.50;;
76848;SDS011;65814;51.134;16.980;2023-07-22T04:40:13;4.70;;;3.50;;
76848;SDS011;65814;51.134;16.980;2023-07-22T04:42:45;4.70;;;3.30;;
76848;SDS011;65814;51.134;16.980;2023-07-22T04:45:13;7.10;;;3.80;;
76848;SDS011;65814;51.134;16.980;2023-07-22T04:47:41;5.40;;;3.80;;
76848;SDS011;65814;51.134;16.980;2023-07-22T04:50:14;5.10;;;3.40;;
76848;SDS011;65814;51.134;16.980;2023-07-22T04:52:42;5.80;;;2.70;;
76848;SDS011;65814;51.134;16.980;2023-07-22T04:55:13;3.90;;;2.90;;
76848;SDS011;65814;51.134;16.980;2023-07-22T04:57:41;4.40;;;3.30;;
76848;SDS011;65814;51.134;16.980;2023-07-22T05:00:12;3.80;;;3.00;;
76848;SDS011;65814;51.134;16.980;2023-07-22T05:02:42;4.10;;;3.00;;
76848;SDS011;65814;51.134;16.980;2023-07-22T05:05:14;4.90;;;3.20;;
76848;SDS011;65814;51.134;16.980;2023-07-22T05:07:42;4.30;;;2.90;;
76848;SDS011;65814;51.134;16.980;2023-07-22T05:10:10;4.10;;;3.00;;
76848;SDS011;65814;51.134;16.980;2023-07-22T05:12:40;6.40;;;3.00;;
76848;SDS011;65814;51.134;16.980;2023-07-22T05:15:12;8.90;;;3.10;;
76848;SDS011;65814;51.134;16.980;2023-07-22T05:17:41;4.40;;;3.20;;
76848;SDS011;65814;51.134;16.980;2023-07-22T05:20:09;3.60;;;3.30;;
76848;SDS011;65814;51.134;16.980;2023-07-22T05:22:37;3.60;;;2.90;;
76848;SDS011;65814;51.134;16.980;2023-07-22T05:25:06;3.60;;;3.10;;
76848;SDS011;65814;51.134;16.980;2023-07-22T05:27:35;4.20;;;3.30;;
76848;SDS011;65814;51.134;16.980;2023-07-22T05:30:03;5.00;;;3.00;;
76848;SDS011;65814;51.134;16.980;2023-07-22T05:32:37;3.40;;;2.80;;
76848;SDS011;65814;51.134;16.980;2023-07-22T05:35:05;5.40;;;3.30;;
76848;SDS011;65814;51.134;16.980;2023-07-22T05:37:33;4.80;;;3.10;;
76848;SDS011;65814;51.134;16.980;2023-07-22T05:40:01;6.30;;;3.50;;
76848;SDS011;65814;51.134;16.980;2023-07-22T05:42:29;4.70;;;3.40;;
76848;SDS011;65814;51.134;16.980;2023-07-22T05:44:57;4.30;;;3.60;;
76848;SDS011;65814;51.134;16.980;2023-07-22T05:47:26;4.10;;;3.30;;
76848;SDS011;65814;51.134;16.980;2023-07-22T05:49:54;3.60;;;3.20;;
76848;SDS011;65814;51.134;16.980;2023-07-22T05:52:22;4.00;;;3.30;;
76848;SDS011;65814;51.134;16.980;2023-07-22T05:54:50;7.10;;;3.70;;
76848;SDS011;65814;51.134;16.980;2023-07-22T05:57:18;4.80;;;3.40;;
76848;SDS011;65814;51.134;16.980;2023-07-22T05:59:46;4.70;;;3.30;;
76848;SDS011;65814;51.134;16.980;2023-07-22T06:02:33;5.40;;;3.00;;
76848;SDS011;65814;51.134;16.980;2023-07-22T06:05:01;4.70;;;3.30;;
76848;SDS011;65814;51.134;16.980;2023-07-22T06:07:29;4.00;;;2.80;;
76848;SDS011;65814;51.134;16.980;2023-07-22T06:09:57;8.70;;;3.90;;
76848;SDS011;65814;51.134;16.980;2023-07-22T06:12:25;4.30;;;3.40;;
76848;SDS011;65814;51.134;16.980;2023-07-22T06:14:53;5.60;;;3.40;;
76848;SDS011;65814;51.134;16.980;2023-07-22T06:17:21;6.10;;;3.80;;
76848;SDS011;65814;51.134;16.980;2023-07-22T06:19:49;5.40;;;3.20;;
76848;SDS011;65814;51.134;16.980;2023-07-22T06:22:17;5.40;;;3.20;;
76848;SDS011;65814;51.134;16.980;2023-07-22T06:24:45;4.00;;;3.20;;
76848;SDS011;65814;51.134;16.980;2023-07-22T06:27:13;6.30;;;3.70;;
76848;SDS011;65814;51.134;16.980;2023-07-22T06:29:41;4.70;;;3.40;;
76848;SDS011;65814;51.134;16.980;2023-07-22T06:32:09;4.50;;;3.20;;
76848;SDS011;65814;51.134;16.980;2023-07-22T06:34:38;5.10;;;3.80;;
76848;SDS011;65814;51.134;16.980;2023-07-22T06:37:06;5.80;;;3.20;;
76848;SDS011;65814;51.134;16.980;2023-07-22T06:39:34;5.20;;;3.80;;
76848;SDS011;65814;51.134;16.980;2023-07-22T06:42:02;7.00;;;3.20;;
76848;SDS011;65814;51.134;16.980;2023-07-22T06:44:30;4.70;;;4.20;;
76848;SDS011;65814;51.134;16.980;2023-07-22T06:47:00;3.90;;;3.20;;
76848;SDS011;65814;51.134;16.980;2023-07-22T06:49:28;5.50;;;3.60;;
76848;SDS011;65814;51.134;16.980;2023-07-22T06:51:56;5.10;;;3.70;;
76848;SDS011;65814;51.134;16.980;2023-07-22T06:54:24;4.40;;;3.30;;
76848;SDS011;65814;51.134;16.980;2023-07-22T06:56:52;7.30;;;3.70;;
76848;SDS011;65814;51.134;16.980;2023-07-22T06:59:21;4.60;;;4.00;;
76848;SDS011;65814;51.134;16.980;2023-07-22T07:01:49;4.90;;;3.30;;
76848;SDS011;65814;51.134;16.980;2023-07-22T07:04:17;5.50;;;3.60;;
76848;SDS011;65814;51.134;16.980;2023-07-22T07:06:45;5.20;;;3.50;;
76848;SDS011;65814;51.134;16.980;2023-07-22T07:09:13;3.90;;;3.50;;
76848;SDS011;65814;51.134;16.980;2023-07-22T07:11:41;5.70;;;3.30;;
76848;SDS011;65814;51.134;16.980;2023-07-22T07:14:09;4.10;;;3.70;;
76848;SDS011;65814;51.134;16.980;2023-07-22T07:16:37;4.40;;;3.80;;
76848;SDS011;65814;51.134;16.980;2023-07-22T07:19:05;4.10;;;3.30;;
76848;SDS011;65814;51.134;16.980;2023-07-22T07:21:36;4.70;;;4.20;;
76848;SDS011;65814;51.134;16.980;2023-07-22T07:24:04;6.10;;;3.70;;
76848;SDS011;65814;51.134;16.980;2023-07-22T07:26:32;5.50;;;4.10;;
76848;SDS011;65814;51.134;16.980;2023-07-22T07:29:00;5.40;;;3.90;;
76848;SDS011;65814;51.134;16.980;2023-07-22T07:31:28;6.20;;;4.10;;
76848;SDS011;65814;51.134;16.980;2023-07-22T07:33:59;7.10;;;4.00;;
76848;SDS011;65814;51.134;16.980;2023-07-22T07:36:27;5.30;;;3.50;;
76848;SDS011;65814;51.134;16.980;2023-07-22T07:38:56;8.90;;;4.10;;
76848;SDS011;65814;51.134;16.980;2023-07-22T07:41:24;4.80;;;4.10;;
76848;SDS011;65814;51.134;16.980;2023-07-22T07:43:52;4.80;;;3.50;;
76848;SDS011;65814;51.134;16.980;2023-07-22T07:48:51;4.70;;;3.90;;
76848;SDS011;65814;51.134;16.980;2023-07-22T07:51:23;4.90;;;3.50;;
76848;SDS011;65814;51.134;16.980;2023-07-22T07:53:55;6.20;;;3.90;;
76848;SDS011;65814;51.134;16.980;2023-07-22T07:56:23;4.00;;;3.40;;
76848;SDS011;65814;51.134;16.980;2023-07-22T07:58:53;4.60;;;2.80;;
76848;SDS011;65814;51.134;16.980;2023-07-22T08:01:21;6.60;;;3.40;;
76848;SDS011;65814;51.134;16.980;2023-07-22T08:03:49;5.20;;;4.40;;
76848;SDS011;65814;51.134;16.980;2023-07-22T08:06:17;6.40;;;3.40;;
76848;SDS011;65814;51.134;16.980;2023-07-22T08:08:47;6.50;;;3.80;;
76848;SDS011;65814;51.134;16.980;2023-07-22T08:11:15;4.30;;;3.20;;
76848;SDS011;65814;51.134;16.980;2023-07-22T08:13:43;4.80;;;3.20;;
76848;SDS011;65814;51.134;16.980;2023-07-22T08:16:12;3.50;;;2.90;;
76848;SDS011;65814;51.134;16.980;2023-07-22T08:18:41;3.80;;;3.30;;
76848;SDS011;65814;51.134;16.980;2023-07-22T08:21:09;3.00;;;2.70;;
76848;SDS011;65814;51.134;16.980;2023-07-22T08:23:37;3.20;;;2.50;;
76848;SDS011;65814;51.134;16.980;2023-07-22T08:26:05;5.30;;;3.10;;
76848;SDS011;65814;51.134;16.980;2023-07-22T08:28:34;9.60;;;2.50;;
76848;SDS011;65814;51.134;16.980;2023-07-22T08:31:02;7.70;;;2.50;;
76848;SDS011;65814;51.134;16.980;2023-07-22T08:33:30;2.90;;;2.30;;
76848;SDS011;65814;51.134;16.980;2023-07-22T08:36:01;2.70;;;2.40;;
76848;SDS011;65814;51.134;16.980;2023-07-22T08:38:30;4.00;;;2.30;;
76848;SDS011;65814;51.134;16.980;2023-07-22T08:40:58;2.70;;;2.00;;
76848;SDS011;65814;51.134;16.980;2023-07-22T08:43:27;2.60;;;2.20;;
76848;SDS011;65814;51.134;16.980;2023-07-22T08:45:59;2.50;;;1.80;;
76848;SDS011;65814;51.134;16.980;2023-07-22T08:48:29;3.40;;;2.50;;
76848;SDS011;65814;51.134;16.980;2023-07-22T08:51:06;3.70;;;2.10;;
76848;SDS011;65814;51.134;16.980;2023-07-22T08:53:38;3.60;;;2.30;;
76848;SDS011;65814;51.134;16.980;2023-07-22T08:56:06;2.50;;;2.20;;
76848;SDS011;65814;51.134;16.980;2023-07-22T08:58:35;2.80;;;2.00;;
76848;SDS011;65814;51.134;16.980;2023-07-22T09:01:03;3.00;;;2.40;;
76848;SDS011;65814;51.134;16.980;2023-07-22T09:03:32;2.40;;;2.10;;
76848;SDS011;65814;51.134;16.980;2023-07-22T09:06:01;4.70;;;2.20;;
76848;SDS011;65814;51.134;16.980;2023-07-22T09:08:32;2.60;;;2.00;;
76848;SDS011;65814;51.134;16.980;2023-07-22T09:11:01;3.00;;;2.20;;
76848;SDS011;65814;51.134;16.980;2023-07-22T09:13:29;3.80;;;2.50;;
76848;SDS011;65814;51.134;16.980;2023-07-22T09:15:58;3.40;;;2.40;;
76848;SDS011;65814;51.134;16.980;2023-07-22T09:18:26;2.60;;;2.10;;
76848;SDS011;65814;51.134;16.980;2023-07-22T09:20:55;4.40;;;3.40;;
76848;SDS011;65814;51.134;16.980;2023-07-22T09:23:32;4.30;;;2.90;;
76848;SDS011;65814;51.134;16.980;2023-07-22T09:26:10;2.90;;;2.40;;
76848;SDS011;65814;51.134;16.980;2023-07-22T09:28:52;3.40;;;2.90;;
76848;SDS011;65814;51.134;16.980;2023-07-22T09:31:25;3.40;;;2.30;;
76848;SDS011;65814;51.134;16.980;2023-07-22T09:33:56;3.20;;;2.50;;
76848;SDS011;65814;51.134;16.980;2023-07-22T09:36:56;3.20;;;2.60;;
76848;SDS011;65814;51.134;16.980;2023-07-22T09:39:25;2.80;;;2.30;;
76848;SDS011;65814;51.134;16.980;2023-07-22T09:41:53;3.30;;;2.40;;
76848;SDS011;65814;51.134;16.980;2023-07-22T09:44:22;5.80;;;3.00;;
76848;SDS011;65814;51.134;16.980;2023-07-22T09:46:50;5.00;;;2.50;;
76848;SDS011;65814;51.134;16.980;2023-07-22T09:49:18;5.70;;;2.80;;
76848;SDS011;65814;51.134;16.980;2023-07-22T09:51:46;5.40;;;2.90;;
76848;SDS011;65814;51.134;16.980;2023-07-22T09:54:29;3.80;;;2.50;;
76848;SDS011;65814;51.134;16.980;2023-07-22T09:56:59;3.70;;;2.60;;
76848;SDS011;65814;51.134;16.980;2023-07-22T09:59:28;3.30;;;2.50;;
76848;SDS011;65814;51.134;16.980;2023-07-22T10:01:56;4.90;;;3.00;;
76848;SDS011;65814;51.134;16.980;2023-07-22T10:04:26;4.20;;;2.80;;
76848;SDS011;65814;51.134;16.980;2023-07-22T10:06:55;4.90;;;3.40;;
76848;SDS011;65814;51.134;16.980;2023-07-22T10:09:23;5.60;;;2.70;;
76848;SDS011;65814;51.134;16.980;2023-07-22T10:11:55;3.80;;;2.90;;
76848;SDS011;65814;51.134;16.980;2023-07-22T10:14:23;5.60;;;2.60;;
76848;SDS011;65814;51.134;16.980;2023-07-22T10:16:51;3.60;;;2.80;;
76848;SDS011;65814;51.134;16.980;2023-07-22T10:19:20;3.70;;;2.80;;
76848;SDS011;65814;51.134;16.980;2023-07-22T10:21:49;5.20;;;2.80;;
76848;SDS011;65814;51.134;16.980;2023-07-22T10:24:17;3.10;;;2.50;;
76848;SDS011;65814;51.134;16.980;2023-07-22T10:26:46;3.50;;;2.50;;
76848;SDS011;65814;51.134;16.980;2023-07-22T10:29:19;5.30;;;2.50;;
76848;SDS011;65814;51.134;16.980;2023-07-22T10:31:47;3.70;;;2.30;;
76848;SDS011;65814;51.134;16.980;2023-07-22T10:34:21;3.70;;;2.60;;
76848;SDS011;65814;51.134;16.980;2023-07-22T10:36:50;2.80;;;2.30;;
76848;SDS011;65814;51.134;16.980;2023-07-22T10:39:24;4.20;;;2.40;;
76848;SDS011;65814;51.134;16.980;2023-07-22T10:42:00;4.60;;;3.50;;
76848;SDS011;65814;51.134;16.980;2023-07-22T10:44:38;7.10;;;3.00;;
76848;SDS011;65814;51.134;16.980;2023-07-22T10:47:07;5.30;;;4.10;;
76848;SDS011;65814;51.134;16.980;2023-07-22T10:49:45;6.10;;;3.80;;
76848;SDS011;65814;51.134;16.980;2023-07-22T10:52:15;6.00;;;3.50;;
76848;SDS011;65814;51.134;16.980;2023-07-22T10:55:14;5.60;;;3.10;;
76848;SDS011;65814;51.134;16.980;2023-07-22T10:57:50;3.90;;;2.40;;
76848;SDS011;65814;51.134;16.980;2023-07-22T11:00:21;3.50;;;2.70;;
76848;SDS011;65814;51.134;16.980;2023-07-22T11:03:09;5.10;;;2.80;;
76848;SDS011;65814;51.134;16.980;2023-07-22T11:05:52;3.50;;;2.80;;
76848;SDS011;65814;51.134;16.980;2023-07-22T11:08:37;5.10;;;3.10;;
76848;SDS011;65814;51.134;16.980;2023-07-22T11:11:06;4.10;;;2.90;;
76848;SDS011;65814;51.134;16.980;2023-07-22T11:13:37;4.00;;;3.00;;
76848;SDS011;65814;51.134;16.980;2023-07-22T11:16:09;3.70;;;2.80;;
76848;SDS011;65814;51.134;16.980;2023-07-22T11:21:07;3.40;;;2.50;;
76848;SDS011;65814;51.134;16.980;2023-07-22T11:23:36;3.10;;;2.00;;
76848;SDS011;65814;51.134;16.980;2023-07-22T11:26:04;3.50;;;2.40;;
76848;SDS011;65814;51.134;16.980;2023-07-22T11:28:33;4.20;;;2.50;;
76848;SDS011;65814;51.134;16.980;2023-07-22T11:31:00;3.20;;;2.70;;
76848;SDS011;65814;51.134;16.980;2023-07-22T11:33:37;3.50;;;2.80;;
76848;SDS011;65814;51.134;16.980;2023-07-22T11:36:06;4.00;;;2.50;;
76848;SDS011;65814;51.134;16.980;2023-07-22T11:38:34;3.40;;;2.70;;
76848;SDS011;65814;51.134;16.980;2023-07-22T11:41:02;3.50;;;2.70;;
76848;SDS011;65814;51.134;16.980;2023-07-22T11:43:31;3.00;;;2.40;;
76848;SDS011;65814;51.134;16.980;2023-07-22T11:45:59;4.40;;;2.50;;
76848;SDS011;65814;51.134;16.980;2023-07-22T11:48:27;4.10;;;2.60;;
76848;SDS011;65814;51.134;16.980;2023-07-22T11:50:58;3.80;;;2.80;;
76848;SDS011;65814;51.134;16.980;2023-07-22T11:53:27;3.80;;;2.60;;
76848;SDS011;65814;51.134;16.980;2023-07-22T11:55:55;3.60;;;2.70;;
76848;SDS011;65814;51.134;16.980;2023-07-22T11:58:24;2.80;;;2.40;;
76848;SDS011;65814;51.134;16.980;2023-07-22T12:01:03;3.20;;;2.50;;
76848;SDS011;65814;51.134;16.980;2023-07-22T12:03:34;5.00;;;3.20;;
76848;SDS011;65814;51.134;16.980;2023-07-22T12:06:06;3.50;;;2.60;;
76848;SDS011;65814;51.134;16.980;2023-07-22T12:08:34;4.40;;;2.40;;
76848;SDS011;65814;51.134;16.980;2023-07-22T12:11:03;3.40;;;2.50;;
76848;SDS011;65814;51.134;16.980;2023-07-22T12:13:37;4.20;;;2.50;;
76848;SDS011;65814;51.134;16.980;2023-07-22T12:16:05;4.00;;;2.40;;
76848;SDS011;65814;51.134;16.980;2023-07-22T12:18:44;3.70;;;2.10;;
76848;SDS011;65814;51.134;16.980;2023-07-22T12:21:13;4.90;;;2.60;;
76848;SDS011;65814;51.134;16.980;2023-07-22T12:23:42;4.50;;;2.30;;
76848;SDS011;65814;51.134;16.980;2023-07-22T12:26:10;3.80;;;2.90;;
76848;SDS011;65814;51.134;16.980;2023-07-22T12:28:38;3.60;;;2.50;;
76848;SDS011;65814;51.134;16.980;2023-07-22T12:31:07;3.80;;;2.40;;
76848;SDS011;65814;51.134;16.980;2023-07-22T12:33:37;4.20;;;2.60;;
76848;SDS011;65814;51.134;16.980;2023-07-22T12:36:05;3.00;;;2.40;;
76848;SDS011;65814;51.134;16.980;2023-07-22T12:38:33;4.70;;;2.70;;
76848;SDS011;65814;51.134;16.980;2023-07-22T12:41:01;3.40;;;2.80;;
76848;SDS011;65814;51.134;16.980;2023-07-22T12:43:31;3.20;;;2.50;;
76848;SDS011;65814;51.134;16.980;2023-07-22T12:45:58;3.50;;;2.70;;
76848;SDS011;65814;51.134;16.980;2023-07-22T12:48:26;4.10;;;3.10;;
76848;SDS011;65814;51.134;16.980;2023-07-22T12:50:55;3.10;;;2.10;;
76848;SDS011;65814;51.134;16.980;2023-07-22T12:53:22;3.40;;;2.30;;
76848;SDS011;65814;51.134;16.980;2023-07-22T12:55:51;2.40;;;2.10;;
76848;SDS011;65814;51.134;16.980;2023-07-22T12:58:19;2.70;;;2.10;;
76848;SDS011;65814;51.134;16.980;2023-07-22T13:00:48;4.10;;;2.60;;
76848;SDS011;65814;51.134;16.980;2023-07-22T13:03:16;3.30;;;2.40;;
76848;SDS011;65814;51.134;16.980;2023-07-22T13:05:44;2.70;;;2.30;;
76848;SDS011;65814;51.134;16.980;2023-07-22T13:08:16;3.10;;;2.40;;
76848;SDS011;65814;51.134;16.980;2023-07-22T13:10:43;2.90;;;2.20;;
76848;SDS011;65814;51.134;16.980;2023-07-22T13:13:14;4.00;;;2.20;;
76848;SDS011;65814;51.134;16.980;2023-07-22T13:15:42;3.00;;;2.20;;
76848;SDS011;65814;51.134;16.980;2023-07-22T13:18:10;3.60;;;2.30;;
76848;SDS011;65814;51.134;16.980;2023-07-22T13:20:41;3.30;;;2.50;;
76848;SDS011;65814;51.134;16.980;2023-07-22T13:23:09;2.70;;;2.00;;
76848;SDS011;65814;51.134;16.980;2023-07-22T13:25:37;3.20;;;2.20;;
76848;SDS011;65814;51.134;16.980;2023-07-22T13:28:05;4.30;;;2.40;;
76848;SDS011;65814;51.134;16.980;2023-07-22T13:30:33;5.70;;;2.50;;
76848;SDS011;65814;51.134;16.980;2023-07-22T13:33:01;3.30;;;1.90;;
76848;SDS011;65814;51.134;16.980;2023-07-22T13:35:30;3.20;;;2.30;;
76848;SDS011;65814;51.134;16.980;2023-07-22T13:37:58;2.80;;;2.40;;
76848;SDS011;65814;51.134;16.980;2023-07-22T13:40:26;3.90;;;2.50;;
76848;SDS011;65814;51.134;16.980;2023-07-22T13:42:53;5.40;;;2.80;;
76848;SDS011;65814;51.134;16.980;2023-07-22T13:45:21;5.50;;;2.60;;
76848;SDS011;65814;51.134;16.980;2023-07-22T13:47:49;3.10;;;2.40;;
76848;SDS011;65814;51.134;16.980;2023-07-22T13:50:18;3.40;;;3.10;;
76848;SDS011;65814;51.134;16.980;2023-07-22T13:52:46;3.20;;;2.30;;
76848;SDS011;65814;51.134;16.980;2023-07-22T13:55:14;3.20;;;2.40;;
76848;SDS011;65814;51.134;16.980;2023-07-22T13:57:42;4.00;;;2.60;;
76848;SDS011;65814;51.134;16.980;2023-07-22T14:00:10;3.20;;;2.80;;
76848;SDS011;65814;51.134;16.980;2023-07-22T14:02:38;3.20;;;2.40;;
76848;SDS011;65814;51.134;16.980;2023-07-22T14:05:07;5.50;;;2.80;;
76848;SDS011;65814;51.134;16.980;2023-07-22T14:07:35;3.80;;;2.70;;
76848;SDS011;65814;51.134;16.980;2023-07-22T14:10:05;6.40;;;3.40;;
76848;SDS011;65814;51.134;16.980;2023-07-22T14:12:33;3.10;;;2.30;;
76848;SDS011;65814;51.134;16.980;2023-07-22T14:15:01;3.30;;;2.40;;
76848;SDS011;65814;51.134;16.980;2023-07-22T14:17:31;3.80;;;2.70;;
76848;SDS011;65814;51.134;16.980;2023-07-22T14:20:00;3.40;;;2.30;;
76848;SDS011;65814;51.134;16.980;2023-07-22T14:22:28;4.90;;;2.60;;
76848;SDS011;65814;51.134;16.980;2023-07-22T14:24:56;4.50;;;3.30;;
76848;SDS011;65814;51.134;16.980;2023-07-22T14:27:23;3.90;;;2.80;;
76848;SDS011;65814;51.134;16.980;2023-07-22T14:29:51;3.80;;;2.30;;
76848;SDS011;65814;51.134;16.980;2023-07-22T14:32:19;3.60;;;2.70;;
76848;SDS011;65814;51.134;16.980;2023-07-22T14:34:47;3.30;;;2.20;;
76848;SDS011;65814;51.134;16.980;2023-07-22T14:37:15;3.40;;;2.80;;
76848;SDS011;65814;51.134;16.980;2023-07-22T14:39:43;5.20;;;3.10;;
76848;SDS011;65814;51.134;16.980;2023-07-22T14:42:12;4.20;;;3.10;;
76848;SDS011;65814;51.134;16.980;2023-07-22T14:44:39;3.80;;;2.70;;
76848;SDS011;65814;51.134;16.980;2023-07-22T14:47:07;3.50;;;2.30;;
76848;SDS011;65814;51.134;16.980;2023-07-22T14:49:35;4.10;;;2.70;;